Linton, Kentucky
Current Conditions -  °F | °C
As of 4:58 PM on Tuesday 21 Oct 2014 (Local Time) from KHOP Reporting Station
Clear Clear  
Wind Chill: 67°   Ceiling: Unl
Heat Index: 67°   Visibility: 10mi
Dew Point: 45°   Wind: 10mph
Humidity: 45%   Direction: 350°N
Pressure: 30.05"   Gusts: NA
Location:  36.8031°N, 87.8159°W
Report Text: KHOP 212158Z AUTO 35009KT 10SM CLR 19/07 A3005 RMK AO2 SLP177 T01920071
Loading
Personal Weather Stations






























Interactive Weather Map
Tropical Storm Tracking
New forecast layout! Learn more

10-Day Weather Forecast

Advertisements
Track Severe Weather on mobile